createdAt,value
2022-09-22T00:01:16.264Z,102097.03
2022-09-22T00:03:46.472Z,102103.88
2022-09-22T00:06:19.140Z,102097.63
2022-09-22T00:08:53.288Z,102091.03
2022-09-22T00:11:28.898Z,102096.25
2022-09-22T00:14:11.299Z,102095.84
2022-09-22T00:16:50.142Z,102089.81
2022-09-22T00:19:24.304Z,102085.47
2022-09-22T00:21:51.310Z,102095.22
2022-09-22T00:24:20.111Z,102094.63
2022-09-22T00:26:47.447Z,102089.38
2022-09-22T00:29:18.329Z,102088.34
2022-09-22T00:31:46.353Z,102085.22
2022-09-22T00:34:19.233Z,102094.44
2022-09-22T00:36:46.527Z,102083.41
2022-09-22T00:39:14.054Z,102085.56
2022-09-22T00:41:45.633Z,102086.97
2022-09-22T00:44:21.670Z,102084.84
2022-09-22T00:46:53.753Z,102078.41
2022-09-22T00:49:27.820Z,102079.47
2022-09-22T00:51:54.353Z,102092.38
2022-09-22T00:54:20.859Z,102082.19
2022-09-22T00:56:57.202Z,102075.31
2022-09-22T00:59:26.132Z,102078.06
2022-09-22T01:01:53.107Z,102074.78
2022-09-22T01:04:19.571Z,102079.16
2022-09-22T01:06:46.476Z,102075.41
2022-09-22T01:09:13.805Z,102074.19
2022-09-22T01:11:41.696Z,102069.44
2022-09-22T01:14:26.422Z,102069.00
2022-09-22T01:17:09.485Z,102066.13
2022-09-22T01:19:57.286Z,102065.94
2022-09-22T01:23:05.530Z,102070.78
2022-09-22T01:25:50.461Z,102057.91
2022-09-22T01:28:50.838Z,102062.91
2022-09-22T01:31:25.994Z,102065.22
2022-09-22T01:34:06.247Z,102056.09
2022-09-22T01:36:47.633Z,102063.56
2022-09-22T01:39:20.320Z,102057.72
2022-09-22T01:42:02.484Z,102057.31
2022-09-22T01:44:42.236Z,102058.97
2022-09-22T01:47:23.984Z,102061.47
2022-09-22T01:49:58.961Z,102052.75
2022-09-22T01:52:29.006Z,102059.00
2022-09-22T01:55:03.879Z,102054.63
2022-09-22T01:57:53.795Z,102059.41
2022-09-22T02:00:20.995Z,102054.22
2022-09-22T02:02:53.635Z,102043.81
2022-09-22T02:05:47.489Z,102047.75
2022-09-22T02:08:20.026Z,102042.59
2022-09-22T02:10:48.657Z,102042.19
2022-09-22T02:13:15.500Z,102038.44
2022-09-22T02:16:02.187Z,102040.50
2022-09-22T02:18:39.880Z,102039.25
2022-09-22T02:21:06.693Z,102040.31
2022-09-22T02:23:33.560Z,102036.78
2022-09-22T02:26:03.911Z,102037.84
2022-09-22T02:28:33.432Z,102035.13
2022-09-22T02:31:19.429Z,102041.34
2022-09-22T02:33:47.661Z,102040.72
2022-09-22T02:36:35.944Z,102039.06
2022-09-22T02:39:18.524Z,102033.06
2022-09-22T02:42:06.734Z,102042.19
2022-09-22T02:44:49.333Z,102034.72
2022-09-22T02:47:28.787Z,102026.44
2022-09-22T02:49:56.362Z,102028.50
2022-09-22T02:52:24.314Z,102025.81
2022-09-22T02:54:53.280Z,102023.75
2022-09-22T02:57:20.404Z,102023.72
2022-09-22T02:59:47.644Z,102019.94
2022-09-22T03:02:14.136Z,102020.34
2022-09-22T03:04:40.659Z,102012.09
2022-09-22T03:07:07.267Z,102014.41
2022-09-22T03:09:33.860Z,102008.00
2022-09-22T03:12:00.434Z,102003.22
2022-09-22T03:14:27.471Z,102005.50
2022-09-22T03:16:54.081Z,102002.19
2022-09-22T03:19:20.529Z,102001.72
2022-09-22T03:21:46.960Z,101998.63
2022-09-22T03:24:13.429Z,102001.53
2022-09-22T03:26:40.151Z,102000.50
2022-09-22T03:29:06.604Z,102000.31
2022-09-22T03:31:32.981Z,102000.69
2022-09-22T03:34:00.112Z,102001.53
2022-09-22T03:36:27.201Z,102005.66
2022-09-22T03:38:53.686Z,102000.69
2022-09-22T03:41:20.486Z,102001.31
2022-09-22T03:43:47.391Z,101994.94
2022-09-22T03:46:14.260Z,102000.13
2022-09-22T03:48:44.922Z,101989.34
2022-09-22T03:51:12.125Z,101996.19
2022-09-22T03:53:38.550Z,101994.13
2022-09-22T03:56:11.250Z,101995.56
2022-09-22T03:58:38.431Z,101999.75
2022-09-22T04:01:06.179Z,101995.56
2022-09-22T04:03:33.980Z,101983.94
2022-09-22T04:06:02.791Z,101991.84
2022-09-22T04:08:29.750Z,101993.69
2022-09-22T04:10:57.747Z,101990.78
2022-09-22T04:13:24.287Z,101985.78
2022-09-22T04:15:50.700Z,101988.06
2022-09-22T04:18:17.777Z,101985.78
2022-09-22T04:20:44.389Z,101985.81
2022-09-22T04:23:12.104Z,101992.06
2022-09-22T04:25:38.594Z,101990.81
2022-09-22T04:28:06.021Z,101980.47
2022-09-22T04:30:33.308Z,101977.34
2022-09-22T04:33:00.156Z,101984.63
2022-09-22T04:35:28.383Z,101988.13
2022-09-22T04:37:56.007Z,101985.22
2022-09-22T04:40:24.154Z,101989.81
2022-09-22T04:42:51.439Z,101982.13
2022-09-22T04:45:18.608Z,101982.94
2022-09-22T04:47:50.148Z,101977.78
2022-09-22T04:50:18.664Z,101972.59
2022-09-22T04:52:50.506Z,101970.91
2022-09-22T04:55:18.196Z,101972.16
2022-09-22T04:57:49.073Z,101972.59
2022-09-22T05:00:16.847Z,101969.69
2022-09-22T05:02:43.746Z,101978.00
2022-09-22T05:05:11.448Z,101973.44
2022-09-22T05:07:42.702Z,101971.56
2022-09-22T05:10:11.201Z,101966.56
2022-09-22T05:12:41.502Z,101972.81
2022-09-22T05:15:09.206Z,101980.50
2022-09-22T05:17:36.436Z,101975.09
2022-09-22T05:20:05.109Z,101970.13
2022-09-22T05:22:35.219Z,101967.22
2022-09-22T05:25:04.501Z,101975.09
2022-09-22T05:27:30.953Z,101978.19
2022-09-22T05:29:57.568Z,101969.91
2022-09-22T05:32:24.161Z,101976.13
2022-09-22T05:34:50.587Z,101977.56
2022-09-22T05:37:17.092Z,101984.44
2022-09-22T05:39:44.762Z,101983.38
2022-09-22T05:42:11.424Z,101999.56
2022-09-22T05:44:37.858Z,101989.81
2022-09-22T05:47:04.415Z,101988.53
2022-09-22T05:49:30.857Z,101984.19
2022-09-22T05:51:58.916Z,101988.31
2022-09-22T05:54:25.395Z,101988.13
2022-09-22T05:56:51.908Z,101992.31
2022-09-22T05:59:18.721Z,101992.31
2022-09-22T06:01:45.230Z,101997.88
2022-09-22T06:04:11.767Z,101988.97
2022-09-22T06:06:38.198Z,101992.06
2022-09-22T06:09:04.712Z,101984.78
2022-09-22T06:11:31.167Z,101987.66
2022-09-22T06:13:57.656Z,101993.28
2022-09-22T06:16:24.270Z,101989.53
2022-09-22T06:18:50.843Z,101983.91
2022-09-22T06:21:17.542Z,101992.78
2022-09-22T06:23:44.340Z,101983.00
2022-09-22T06:26:11.012Z,101991.50
2022-09-22T06:28:37.497Z,101990.66
2022-09-22T06:31:03.947Z,101978.81
2022-09-22T06:33:30.832Z,101979.44
2022-09-22T06:36:01.755Z,101978.19
2022-09-22T06:38:31.873Z,101984.97
2022-09-22T06:41:02.748Z,101983.72
2022-09-22T06:43:29.219Z,101983.09
2022-09-22T06:46:00.058Z,101978.09
2022-09-22T06:48:27.544Z,101982.81
2022-09-22T06:50:54.308Z,101987.34
2022-09-22T06:53:24.738Z,101981.31
2022-09-22T06:55:54.293Z,101988.78
2022-09-22T06:58:22.125Z,101988.72
2022-09-22T07:00:49.009Z,101985.81
2022-09-22T07:03:24.262Z,101994.09
2022-09-22T07:06:00.819Z,101987.19
2022-09-22T07:08:32.817Z,101987.19
2022-09-22T07:11:08.027Z,101985.72
2022-09-22T07:13:39.453Z,101985.66
2022-09-22T07:16:16.494Z,101981.84
2022-09-22T07:18:48.948Z,101983.47
2022-09-22T07:21:20.941Z,101980.28
2022-09-22T07:23:49.952Z,101978.09
2022-09-22T07:26:22.286Z,101980.31
2022-09-22T07:28:53.597Z,101979.81
2022-09-22T07:31:22.958Z,101973.84
2022-09-22T07:33:54.294Z,101980.88
2022-09-22T07:36:28.855Z,101982.00
2022-09-22T07:38:57.782Z,101972.69
2022-09-22T07:41:30.264Z,101984.25
2022-09-22T07:44:19.199Z,101986.28
2022-09-22T07:46:47.743Z,101984.47
2022-09-22T07:49:22.241Z,101975.19
2022-09-22T07:51:49.717Z,101979.84
2022-09-22T07:54:16.799Z,101974.94
2022-09-22T07:56:44.415Z,101972.97
2022-09-22T07:59:13.446Z,101981.16
2022-09-22T08:01:44.150Z,101976.97
2022-09-22T08:04:16.836Z,101980.91
2022-09-22T08:06:48.698Z,101983.53
2022-09-22T08:09:15.715Z,101976.44
2022-09-22T08:11:48.436Z,101980.47
2022-09-22T08:14:21.394Z,101983.38
2022-09-22T08:16:51.257Z,101988.00
2022-09-22T08:19:18.561Z,101982.56
2022-09-22T08:21:49.140Z,101978.28
2022-09-22T08:24:21.472Z,101966.47
2022-09-22T08:26:52.662Z,101975.28
2022-09-22T08:29:20.736Z,101979.31
2022-09-22T08:31:49.156Z,101973.44
2022-09-22T08:34:18.288Z,101981.44
2022-09-22T08:36:47.402Z,101980.00
2022-09-22T08:39:15.909Z,101974.16
2022-09-22T08:41:56.002Z,101976.72
2022-09-22T08:44:37.328Z,101982.00
2022-09-22T08:47:04.575Z,101979.94
2022-09-22T08:49:56.068Z,101980.16
2022-09-22T08:52:48.122Z,101979.31
2022-09-22T08:55:23.364Z,101983.00
2022-09-22T08:58:01.047Z,101988.06
2022-09-22T09:00:42.929Z,101982.63
2022-09-22T09:03:27.969Z,101987.47
2022-09-22T09:06:00.289Z,101982.94
2022-09-22T09:08:47.333Z,101978.66
2022-09-22T09:11:51.308Z,101983.56
2022-09-22T09:15:03.478Z,101976.47
2022-09-22T09:17:32.463Z,101977.03
2022-09-22T09:20:12.786Z,101970.59
2022-09-22T09:22:48.588Z,101970.25
2022-09-22T09:25:23.060Z,101965.34
2022-09-22T09:27:57.048Z,101975.22
2022-09-22T09:30:24.276Z,101974.38
2022-09-22T09:33:00.624Z,101968.38
2022-09-22T09:35:48.359Z,101958.34
2022-09-22T09:38:18.055Z,101968.69
2022-09-22T09:40:52.965Z,101971.97
2022-09-22T09:43:23.507Z,101955.94
2022-09-22T09:46:14.943Z,101960.31
2022-09-22T09:49:05.540Z,101957.38
2022-09-22T09:51:41.192Z,101956.81
2022-09-22T09:54:14.437Z,101951.66
2022-09-22T09:57:12.852Z,101954.38
2022-09-22T10:00:00.165Z,101952.22
2022-09-22T10:02:30.206Z,101948.63
2022-09-22T10:05:08.195Z,101952.44
2022-09-22T10:07:42.008Z,101949.69
2022-09-22T10:10:34.628Z,101950.50
2022-09-22T10:13:03.898Z,101945.03
2022-09-22T10:15:35.623Z,101935.44
2022-09-22T10:18:26.273Z,101945.00
2022-09-22T10:23:58.208Z,101927.91
2022-09-22T10:26:32.845Z,101930.88
2022-09-22T10:29:18.888Z,101921.97
2022-09-22T10:32:17.202Z,101926.91
2022-09-22T10:34:51.418Z,101922.47
2022-09-22T10:37:28.823Z,101922.06
2022-09-22T10:40:03.567Z,101922.00
2022-09-22T10:42:52.868Z,101919.78
2022-09-22T10:45:23.332Z,101903.50
2022-09-22T10:47:59.215Z,101918.31
2022-09-22T10:50:50.684Z,101906.69
2022-09-22T10:53:39.449Z,101906.47
2022-09-22T10:56:15.085Z,101910.56
2022-09-22T10:59:02.982Z,101909.53
2022-09-22T11:01:55.039Z,101909.13
2022-09-22T11:04:40.578Z,101907.56
2022-09-22T11:07:41.243Z,101907.84
2022-09-22T11:10:51.577Z,101904.03
2022-09-22T11:13:24.751Z,101905.22
2022-09-22T11:16:13.274Z,101903.06
2022-09-22T11:19:07.329Z,101890.53
2022-09-22T11:21:52.141Z,101892.19
2022-09-22T11:24:38.163Z,101893.84
2022-09-22T11:27:10.045Z,101885.34
2022-09-22T11:30:11.025Z,101883.09
2022-09-22T11:32:49.741Z,101877.91
2022-09-22T11:35:40.639Z,101881.63
2022-09-22T11:38:51.810Z,101882.47
2022-09-22T11:41:31.182Z,101883.63
2022-09-22T11:44:20.316Z,101878.13
2022-09-22T11:47:15.541Z,101876.47
2022-09-22T11:50:17.279Z,101869.25
2022-09-22T11:53:05.777Z,101870.44
2022-09-22T11:56:13.052Z,101868.31
2022-09-22T11:58:42.139Z,101859.78
2022-09-22T12:01:21.966Z,101866.69
2022-09-22T12:03:57.650Z,101857.94
2022-09-22T12:06:30.345Z,101861.03
2022-09-22T12:09:06.915Z,101858.88
2022-09-22T12:11:36.728Z,101855.84
2022-09-22T12:14:04.731Z,101848.50
2022-09-22T12:16:41.957Z,101855.31
2022-09-22T12:19:25.087Z,101854.22
2022-09-22T12:22:05.404Z,101850.63
2022-09-22T12:24:32.744Z,101857.34
2022-09-22T12:27:11.325Z,101846.81
2022-09-22T12:29:38.881Z,101831.22
2022-09-22T12:32:05.966Z,101835.16
2022-09-22T12:34:39.795Z,101826.19
2022-09-22T12:37:19.303Z,101827.84
2022-09-22T12:39:48.368Z,101818.72
2022-09-22T12:42:34.651Z,101829.06
2022-09-22T12:45:21.095Z,101820.94
2022-09-22T12:47:53.922Z,101824.22
2022-09-22T12:50:23.471Z,101819.97
2022-09-22T12:52:50.729Z,101816.28
2022-09-22T12:55:30.329Z,101813.03
2022-09-22T12:58:02.524Z,101805.03
2022-09-22T13:00:36.360Z,101801.59
2022-09-22T13:03:24.712Z,101805.91
2022-09-22T13:05:53.535Z,101809.34
2022-09-22T13:08:31.125Z,101794.91
2022-09-22T13:11:03.898Z,101795.59
2022-09-22T13:13:40.492Z,101797.16
2022-09-22T13:16:16.614Z,101794.19
2022-09-22T13:18:44.858Z,101787.50
2022-09-22T13:21:14.128Z,101798.00
2022-09-22T13:23:59.055Z,101787.63
2022-09-22T13:26:38.919Z,101787.50
2022-09-22T13:29:14.713Z,101789.78
2022-09-22T13:31:51.005Z,101781.44
2022-09-22T13:34:33.224Z,101782.84
2022-09-22T13:37:01.408Z,101768.19
2022-09-22T13:39:33.942Z,101765.72
2022-09-22T13:42:11.870Z,101773.47
2022-09-22T13:44:41.908Z,101765.63
2022-09-22T13:47:23.414Z,101752.50
2022-09-22T13:49:54.936Z,101767.19
2022-09-22T13:52:27.274Z,101752.44
2022-09-22T13:55:08.520Z,101751.91
2022-09-22T13:57:37.591Z,101745.00
2022-09-22T14:00:08.626Z,101746.94
2022-09-22T14:02:35.289Z,101745.41
2022-09-22T14:05:08.143Z,101736.22
2022-09-22T14:07:49.446Z,101740.50
2022-09-22T14:10:28.037Z,101737.13
2022-09-22T14:12:56.228Z,101733.28
2022-09-22T14:15:38.598Z,101739.69
2022-09-22T14:18:25.995Z,101731.13
2022-09-22T14:20:56.293Z,101731.13
2022-09-22T14:23:28.825Z,101726.84
2022-09-22T14:25:59.095Z,101726.44
2022-09-22T14:28:29.752Z,101729.19
2022-09-22T14:30:57.517Z,101723.56
2022-09-22T14:33:27.896Z,101728.34
2022-09-22T14:36:02.964Z,101726.63
2022-09-22T14:38:35.616Z,101722.94
2022-09-22T14:41:21.627Z,101716.53
2022-09-22T14:43:50.999Z,101716.84
2022-09-22T14:46:43.239Z,101712.84
2022-09-22T14:49:37.856Z,101709.25
2022-09-22T14:52:14.981Z,101716.53
2022-09-22T14:54:44.592Z,101705.91
2022-09-22T14:57:15.437Z,101710.94
2022-09-22T15:00:08.389Z,101702.75
2022-09-22T15:02:40.348Z,101699.28
2022-09-22T15:05:09.259Z,101689.69
2022-09-22T15:07:39.514Z,101692.16
2022-09-22T15:10:19.424Z,101690.81
2022-09-22T15:12:49.517Z,101685.44
2022-09-22T15:15:29.111Z,101685.72
2022-09-22T15:18:16.236Z,101680.84
2022-09-22T15:21:11.283Z,101685.44
2022-09-22T15:23:45.212Z,101680.53
2022-09-22T15:26:19.821Z,101674.72
2022-09-22T15:28:50.942Z,101665.94
2022-09-22T15:31:22.366Z,101666.88
2022-09-22T15:33:49.350Z,101672.88
2022-09-22T15:36:20.086Z,101672.53
2022-09-22T15:38:47.697Z,101672.13
2022-09-22T15:41:20.264Z,101670.34
2022-09-22T15:43:47.595Z,101671.94
2022-09-22T15:46:28.046Z,101672.22
2022-09-22T15:49:24.771Z,101672.22
2022-09-22T15:51:51.833Z,101665.13
2022-09-22T15:54:21.766Z,101677.47
2022-09-22T15:56:52.467Z,101668.34
2022-09-22T15:59:22.911Z,101666.19
2022-09-22T16:01:51.728Z,101669.94
2022-09-22T16:04:19.682Z,101662.97
2022-09-22T16:06:54.610Z,101654.59
2022-09-22T16:09:21.411Z,101650.94
2022-09-22T16:11:48.611Z,101656.38
2022-09-22T16:14:15.305Z,101648.81
2022-09-22T16:16:42.886Z,101652.44
2022-09-22T16:19:09.996Z,101655.56
2022-09-22T16:21:39.136Z,101645.16
2022-09-22T16:24:08.568Z,101641.16
2022-09-22T16:26:36.984Z,101645.94
2022-09-22T16:29:04.982Z,101644.16
2022-09-22T16:31:31.526Z,101639.84
2022-09-22T16:34:01.577Z,101641.09
2022-09-22T16:36:31.505Z,101636.53
2022-09-22T16:38:59.001Z,101634.72
2022-09-22T16:41:28.284Z,101632.91
2022-09-22T16:43:56.866Z,101630.28
2022-09-22T16:46:31.394Z,101638.41
2022-09-22T16:49:06.014Z,101634.88
2022-09-22T16:51:36.312Z,101636.91
2022-09-22T16:54:05.522Z,101632.28
2022-09-22T16:56:34.553Z,101634.78
2022-09-22T16:59:01.620Z,101640.34
2022-09-22T17:01:31.019Z,101632.97
2022-09-22T17:04:00.486Z,101640.22
2022-09-22T17:06:28.574Z,101642.81
2022-09-22T17:09:00.206Z,101641.56
2022-09-22T17:11:30.147Z,101631.53
2022-09-22T17:14:03.525Z,101636.59
2022-09-22T17:16:34.196Z,101635.53
2022-09-22T17:19:04.599Z,101640.50
2022-09-22T17:21:34.592Z,101638.38
2022-09-22T17:24:02.568Z,101634.03
2022-09-22T17:26:30.161Z,101634.34
2022-09-22T17:28:59.656Z,101625.38
2022-09-22T17:31:33.239Z,101631.41
2022-09-22T17:34:00.097Z,101629.22
2022-09-22T17:36:28.176Z,101631.13
2022-09-22T17:39:04.051Z,101627.06
2022-09-22T17:41:32.890Z,101622.94
2022-09-22T17:44:04.418Z,101626.22
2022-09-22T17:46:33.122Z,101622.13
2022-09-22T17:49:19.093Z,101617.47
2022-09-22T17:52:06.888Z,101626.72
2022-09-22T17:54:57.534Z,101617.16
2022-09-22T17:57:29.479Z,101618.78
2022-09-22T17:59:57.838Z,101627.78
2022-09-22T18:02:27.095Z,101623.66
2022-09-22T18:04:54.369Z,101616.00
2022-09-22T18:07:24.176Z,101619.81
2022-09-22T18:09:51.960Z,101617.59
2022-09-22T18:12:21.554Z,101612.66
2022-09-22T18:14:50.466Z,101620.03
2022-09-22T18:17:19.844Z,101621.38
2022-09-22T18:19:47.701Z,101624.38
2022-09-22T18:22:17.216Z,101625.22
2022-09-22T18:24:44.359Z,101622.50
2022-09-22T18:27:13.417Z,101624.38
2022-09-22T18:29:39.825Z,101628.50
2022-09-22T18:32:06.368Z,101621.94
2022-09-22T18:34:32.841Z,101626.28
2022-09-22T18:37:04.450Z,101628.16
2022-09-22T18:39:31.255Z,101622.94
2022-09-22T18:41:58.193Z,101614.75
2022-09-22T18:44:29.015Z,101620.19
2022-09-22T18:46:56.923Z,101621.31
2022-09-22T18:49:23.931Z,101627.84
2022-09-22T18:51:50.456Z,101627.06
2022-09-22T18:54:19.527Z,101627.84
2022-09-22T18:56:47.752Z,101623.75
2022-09-22T18:59:24.448Z,101622.88
2022-09-22T19:01:51.827Z,101632.16
2022-09-22T19:04:21.264Z,101627.75
2022-09-22T19:07:09.516Z,101626.34
2022-09-22T19:09:36.814Z,101627.97
2022-09-22T19:12:07.904Z,101624.13
2022-09-22T19:14:39.669Z,101623.56
2022-09-22T19:17:07.978Z,101626.50
2022-09-22T19:19:37.044Z,101628.94
2022-09-22T19:22:09.061Z,101626.97
2022-09-22T19:24:37.142Z,101622.38
2022-09-22T19:27:06.454Z,101630.78
2022-09-22T19:29:33.476Z,101628.28
2022-09-22T19:32:04.562Z,101626.63
2022-09-22T19:34:31.476Z,101632.56
2022-09-22T19:36:59.685Z,101625.94
2022-09-22T19:39:26.742Z,101625.13
2022-09-22T19:41:54.837Z,101624.81
2022-09-22T19:44:22.659Z,101626.66
2022-09-22T19:46:50.234Z,101622.19
2022-09-22T19:49:18.016Z,101624.34
2022-09-22T19:51:45.220Z,101619.88
2022-09-22T19:54:12.002Z,101615.72
2022-09-22T19:56:38.854Z,101614.59
2022-09-22T19:59:09.018Z,101631.13
2022-09-22T20:01:38.153Z,101623.47
2022-09-22T20:04:05.836Z,101624.44
2022-09-22T20:06:34.214Z,101629.81
2022-09-22T20:09:03.820Z,101628.13
2022-09-22T20:11:39.172Z,101625.84
2022-09-22T20:14:27.040Z,101621.75
2022-09-22T20:17:05.838Z,101620.53
2022-09-22T20:19:34.758Z,101617.50
2022-09-22T20:22:25.565Z,101614.97
2022-09-22T20:24:54.869Z,101615.44
2022-09-22T20:27:29.575Z,101611.91
2022-09-22T20:29:57.628Z,101613.50
2022-09-22T20:32:31.391Z,101606.09
2022-09-22T20:34:58.224Z,101613.34
2022-09-22T20:37:24.959Z,101609.50
2022-09-22T20:39:52.081Z,101604.25
2022-09-22T20:42:18.916Z,101599.81
2022-09-22T20:44:46.800Z,101611.00
2022-09-22T20:47:15.663Z,101605.50
2022-09-22T20:49:43.376Z,101595.91
2022-09-22T20:52:15.683Z,101602.06
2022-09-22T20:54:47.153Z,101597.13
2022-09-22T20:57:14.768Z,101599.84
2022-09-22T20:59:42.472Z,101596.50
2022-09-22T21:02:10.227Z,101597.78
2022-09-22T21:04:36.697Z,101599.22
2022-09-22T21:07:03.730Z,101601.13
2022-09-22T21:09:48.811Z,101597.22
2022-09-22T21:12:15.352Z,101599.31
2022-09-22T21:14:45.714Z,101597.34
2022-09-22T21:17:13.391Z,101599.56
2022-09-22T21:19:40.099Z,101603.91
2022-09-22T21:22:06.626Z,101601.19
2022-09-22T21:24:34.081Z,101596.84
2022-09-22T21:27:00.520Z,101600.19
2022-09-22T21:29:29.685Z,101588.28
2022-09-22T21:31:58.038Z,101586.38
2022-09-22T21:34:24.803Z,101588.53
2022-09-22T21:36:51.659Z,101591.56
2022-09-22T21:39:19.004Z,101582.84
2022-09-22T21:41:45.519Z,101582.84
2022-09-22T21:44:12.274Z,101582.59
2022-09-22T21:46:41.763Z,101578.78
2022-09-22T21:49:09.133Z,101573.59
2022-09-22T21:51:42.032Z,101571.72
2022-09-22T21:54:12.918Z,101571.13
2022-09-22T21:56:39.530Z,101574.94
2022-09-22T21:59:05.989Z,101559.94
2022-09-22T22:01:35.256Z,101564.81
2022-09-22T22:04:03.320Z,101570.75
2022-09-22T22:06:37.856Z,101562.03
2022-09-22T22:09:06.951Z,101561.22
2022-09-22T22:11:37.680Z,101553.31
2022-09-22T22:14:07.043Z,101558.75
2022-09-22T22:16:37.872Z,101553.88
2022-09-22T22:19:09.963Z,101556.59
2022-09-22T22:21:36.567Z,101550.34
2022-09-22T22:24:28.383Z,101546.81
2022-09-22T22:26:58.150Z,101540.31
2022-09-22T22:29:31.578Z,101540.00
2022-09-22T22:31:59.739Z,101541.91
2022-09-22T22:34:26.383Z,101545.97
2022-09-22T22:36:54.440Z,101543.28
2022-09-22T22:39:20.935Z,101544.25
2022-09-22T22:41:50.738Z,101538.81
2022-09-22T22:44:18.261Z,101541.78
2022-09-22T22:46:45.384Z,101544.44
2022-09-22T22:49:12.380Z,101546.00
2022-09-22T22:51:40.166Z,101537.88
2022-09-22T22:54:06.675Z,101540.34
2022-09-22T22:56:33.434Z,101540.34
2022-09-22T22:59:00.426Z,101536.47
2022-09-22T23:01:29.744Z,101540.25
2022-09-22T23:04:04.613Z,101530.94
2022-09-22T23:06:38.824Z,101535.25
2022-09-22T23:09:08.226Z,101525.13
2022-09-22T23:11:39.672Z,101530.31
2022-09-22T23:14:08.493Z,101526.53
2022-09-22T23:16:38.518Z,101528.91
2022-09-22T23:19:07.756Z,101518.81
2022-09-22T23:21:36.006Z,101520.59
2022-09-22T23:24:03.471Z,101519.72
2022-09-22T23:26:30.010Z,101517.06
2022-09-22T23:28:59.507Z,101506.13
2022-09-22T23:31:26.374Z,101513.19
2022-09-22T23:33:53.758Z,101513.44
2022-09-22T23:36:24.422Z,101508.38
2022-09-22T23:39:03.535Z,101505.41
2022-09-22T23:41:32.139Z,101502.34
2022-09-22T23:43:59.343Z,101500.47
2022-09-22T23:46:25.940Z,101497.28
2022-09-22T23:48:52.415Z,101494.97
2022-09-22T23:51:22.067Z,101501.19
2022-09-22T23:53:49.121Z,101491.16
2022-09-22T23:56:15.635Z,101493.06
2022-09-22T23:58:42.227Z,101495.44
